createdAt,value
2023-04-26T00:02:38.699Z,95.91
2023-04-26T00:05:51.172Z,95.06
2023-04-26T00:09:04.374Z,95.15
2023-04-26T00:12:16.822Z,95.02
2023-04-26T00:15:29.091Z,95.04
2023-04-26T00:18:41.610Z,93.83
2023-04-26T00:21:53.615Z,94.44
2023-04-26T00:25:05.624Z,93.29
2023-04-26T00:28:17.617Z,94.43
2023-04-26T00:31:33.016Z,94.12
2023-04-26T00:34:45.816Z,93.11
2023-04-26T00:37:59.248Z,93.02
2023-04-26T00:41:11.406Z,93.14
2023-04-26T00:44:23.588Z,91.36
2023-04-26T00:47:37.383Z,91.25
2023-04-26T00:50:50.851Z,90.42
2023-04-26T00:54:03.354Z,90.42
2023-04-26T00:57:17.159Z,88.34
2023-04-26T01:00:29.869Z,86.33
2023-04-26T01:17:34.139Z,85.06
2023-04-26T01:20:52.383Z,84.28
2023-04-26T01:24:05.310Z,83.93
2023-04-26T01:27:17.466Z,82.63
2023-04-26T01:30:30.237Z,83.03
2023-04-26T01:33:45.097Z,83.22
2023-04-26T01:36:57.302Z,83.39
2023-04-26T01:40:11.873Z,82.37
2023-04-26T01:43:25.208Z,82.59
2023-04-26T01:46:37.417Z,82.14
2023-04-26T01:49:50.021Z,81.38
2023-04-26T01:53:04.898Z,82.21
2023-04-26T01:56:18.425Z,81.35
2023-04-26T01:59:30.736Z,81.84
2023-04-26T02:02:44.600Z,80.78
2023-04-26T02:05:57.103Z,81.74
2023-04-26T02:09:09.897Z,82.08
2023-04-26T02:12:23.942Z,83.53
2023-04-26T02:15:35.972Z,82.53
2023-04-26T02:18:50.079Z,82.68
2023-04-26T02:22:04.275Z,81.83
2023-04-26T02:25:17.323Z,83.35
2023-04-26T02:28:29.553Z,84.37
2023-04-26T02:31:41.679Z,83.81
2023-04-26T02:34:54.045Z,83.05
2023-04-26T02:38:07.306Z,83.00
2023-04-26T02:41:19.625Z,83.80
2023-04-26T02:44:35.059Z,84.07
2023-04-26T02:47:48.065Z,85.66
2023-04-26T02:51:01.286Z,84.66
2023-04-26T02:54:13.824Z,85.98
2023-04-26T02:57:26.345Z,86.48
2023-04-26T03:00:38.633Z,86.88
2023-04-26T03:03:50.964Z,87.55
2023-04-26T03:07:03.004Z,86.53
2023-04-26T03:10:17.090Z,86.86
2023-04-26T03:13:30.330Z,87.80
2023-04-26T03:16:48.959Z,88.79
2023-04-26T03:20:02.699Z,88.96
2023-04-26T03:23:15.448Z,89.72
2023-04-26T03:26:27.665Z,89.87
2023-04-26T03:29:40.633Z,89.42
2023-04-26T03:32:54.981Z,90.49
2023-04-26T03:36:07.551Z,91.43
2023-04-26T03:39:20.415Z,90.89
2023-04-26T03:42:32.997Z,90.26
2023-04-26T03:45:45.236Z,90.81
2023-04-26T03:48:57.414Z,90.76
2023-04-26T03:52:10.336Z,90.36
2023-04-26T03:55:22.854Z,90.61
2023-04-26T03:58:38.195Z,90.27
2023-04-26T04:01:50.633Z,90.39
2023-04-26T04:05:02.962Z,90.49
2023-04-26T04:08:16.072Z,90.48
2023-04-26T04:11:29.482Z,90.92
2023-04-26T04:14:41.921Z,91.40
2023-04-26T04:17:54.535Z,90.02
2023-04-26T04:21:06.888Z,91.08
2023-04-26T04:24:20.396Z,90.13
2023-04-26T04:27:32.788Z,90.14
2023-04-26T04:30:47.552Z,90.78
2023-04-26T04:34:00.174Z,89.85
2023-04-26T04:37:12.280Z,89.59
2023-04-26T04:40:24.794Z,91.15
2023-04-26T04:43:37.612Z,91.07
2023-04-26T04:46:50.839Z,89.75
2023-04-26T04:50:03.945Z,90.68
2023-04-26T04:53:17.714Z,90.23
2023-04-26T04:56:30.369Z,90.13
2023-04-26T04:59:42.647Z,89.86
2023-04-26T05:02:55.475Z,89.06
2023-04-26T05:06:08.813Z,88.59
2023-04-26T05:09:21.823Z,88.83
2023-04-26T05:12:35.509Z,87.87
2023-04-26T05:15:48.086Z,85.71
2023-04-26T05:19:00.308Z,84.47
2023-04-26T05:22:13.379Z,83.73
2023-04-26T05:25:26.141Z,84.17
2023-04-26T05:28:43.862Z,83.75
2023-04-26T05:32:01.541Z,84.25
2023-04-26T05:35:26.516Z,82.78
2023-04-26T05:38:38.824Z,81.73
2023-04-26T05:41:51.236Z,81.64
2023-04-26T05:45:06.920Z,82.58
2023-04-26T05:48:19.741Z,82.56
2023-04-26T05:51:32.316Z,80.62
2023-04-26T05:54:44.643Z,79.85
2023-04-26T05:57:58.625Z,78.81
2023-04-26T06:01:12.590Z,77.93
2023-04-26T06:04:25.079Z,75.73
2023-04-26T06:07:39.659Z,75.77
2023-04-26T06:10:51.739Z,73.69
2023-04-26T06:14:03.957Z,74.07
2023-04-26T06:17:16.454Z,73.15
2023-04-26T06:20:29.905Z,71.78
2023-04-26T06:23:42.004Z,69.83
2023-04-26T06:26:54.232Z,68.51
2023-04-26T06:30:07.032Z,66.88
2023-04-26T06:33:20.251Z,67.14
2023-04-26T06:36:33.090Z,64.71
2023-04-26T06:39:45.754Z,63.86
2023-04-26T06:42:58.381Z,62.79
2023-04-26T06:46:13.362Z,59.74
2023-04-26T06:49:26.208Z,59.73
2023-04-26T06:52:39.240Z,59.85
2023-04-26T06:55:53.423Z,58.92
2023-04-26T06:59:10.194Z,58.98
2023-04-26T07:02:23.985Z,53.62
2023-04-26T07:05:36.583Z,54.78
2023-04-26T07:08:48.745Z,55.42
2023-04-26T07:12:01.536Z,55.15
2023-04-26T07:15:16.589Z,53.60
2023-04-26T07:18:28.876Z,53.92
2023-04-26T07:21:41.060Z,53.79
2023-04-26T07:24:53.402Z,52.74
2023-04-26T07:28:05.611Z,52.63
2023-04-26T07:31:18.011Z,52.94
2023-04-26T07:34:30.688Z,50.08
2023-04-26T07:37:42.722Z,50.70
2023-04-26T07:40:55.148Z,51.15
2023-04-26T07:44:07.246Z,54.89
2023-04-26T07:47:22.259Z,57.32
2023-04-26T07:50:34.748Z,55.79
2023-04-26T07:53:47.039Z,53.69
2023-04-26T07:56:59.327Z,55.24
2023-04-26T08:00:14.552Z,56.50
2023-04-26T08:03:27.617Z,55.93
2023-04-26T08:06:40.028Z,54.02
2023-04-26T08:09:52.219Z,53.13
2023-04-26T08:13:04.579Z,53.33
2023-04-26T08:16:17.026Z,50.68
2023-04-26T08:19:31.448Z,50.72
2023-04-26T08:22:43.866Z,48.46
2023-04-26T08:25:56.057Z,50.16
2023-04-26T08:29:09.150Z,48.24
2023-04-26T08:32:22.387Z,48.26
2023-04-26T08:35:35.042Z,50.80
2023-04-26T08:38:47.240Z,50.95
2023-04-26T08:42:04.702Z,52.91
2023-04-26T08:45:18.831Z,49.64
2023-04-26T08:48:32.996Z,46.59
2023-04-26T08:51:46.230Z,48.73
2023-04-26T08:55:01.205Z,51.89
2023-04-26T08:58:13.829Z,50.75
2023-04-26T09:01:27.364Z,51.81
2023-04-26T09:04:40.877Z,50.48
2023-04-26T09:07:55.433Z,46.44
2023-04-26T09:11:09.339Z,47.52
2023-04-26T09:14:21.548Z,50.41
2023-04-26T09:17:38.429Z,46.35
2023-04-26T09:20:51.017Z,43.09
2023-04-26T09:24:08.253Z,46.89
2023-04-26T09:27:21.070Z,48.67
2023-04-26T09:30:34.014Z,50.55
2023-04-26T09:34:04.934Z,51.99
2023-04-26T09:37:19.089Z,50.53
2023-04-26T09:40:32.638Z,53.41
2023-04-26T09:43:46.800Z,55.49
2023-04-26T09:47:13.268Z,56.33
2023-04-26T09:50:36.382Z,57.38
2023-04-26T09:53:51.917Z,56.49
2023-04-26T09:57:10.248Z,52.07
2023-04-26T10:00:25.697Z,48.51
2023-04-26T10:03:40.402Z,52.02
2023-04-26T10:06:52.925Z,54.84
2023-04-26T10:10:05.380Z,55.71
2023-04-26T10:13:21.050Z,58.00
2023-04-26T10:16:34.895Z,59.61
2023-04-26T10:19:49.280Z,60.08
2023-04-26T10:23:05.167Z,60.01
2023-04-26T10:26:49.769Z,57.37
2023-04-26T10:30:19.665Z,55.54
2023-04-26T10:33:32.581Z,57.97
2023-04-26T10:37:13.263Z,59.00
2023-04-26T10:40:36.828Z,54.72
2023-04-26T10:43:49.044Z,54.11
2023-04-26T10:47:01.542Z,52.91
2023-04-26T10:50:16.407Z,53.23
2023-04-26T10:53:28.521Z,51.82
2023-04-26T10:57:01.409Z,52.80
2023-04-26T11:00:36.857Z,54.02
2023-04-26T11:04:01.838Z,52.36
2023-04-26T11:07:14.122Z,55.42
2023-04-26T11:10:31.800Z,57.46
2023-04-26T11:13:47.315Z,57.36
2023-04-26T11:17:00.146Z,57.69
2023-04-26T11:20:21.824Z,55.29
2023-04-26T11:23:37.562Z,54.46
2023-04-26T11:26:58.440Z,53.77
2023-04-26T11:30:15.646Z,51.29
2023-04-26T11:33:29.214Z,48.66
2023-04-26T11:36:44.742Z,46.11
2023-04-26T11:39:56.902Z,48.21
2023-04-26T11:43:10.690Z,45.66
2023-04-26T11:46:24.774Z,46.90
2023-04-26T11:49:38.260Z,48.64
2023-04-26T11:52:50.766Z,47.17
2023-04-26T11:56:03.791Z,46.76
2023-04-26T11:59:16.469Z,47.16
2023-04-26T12:02:31.688Z,45.61
2023-04-26T12:05:44.707Z,46.42
2023-04-26T12:09:00.853Z,48.60
2023-04-26T12:12:13.912Z,50.11
2023-04-26T12:15:32.736Z,46.50
2023-04-26T12:18:45.290Z,44.99
2023-04-26T12:21:57.913Z,45.19
2023-04-26T12:25:18.001Z,44.13
2023-04-26T12:28:31.028Z,43.27
2023-04-26T12:31:43.401Z,42.09
2023-04-26T12:34:56.119Z,43.76
2023-04-26T12:38:08.360Z,45.99
2023-04-26T12:41:20.878Z,44.79
2023-04-26T12:44:33.392Z,47.11
2023-04-26T12:47:46.380Z,48.07
2023-04-26T12:50:58.531Z,47.38
2023-04-26T12:54:11.413Z,46.59
2023-04-26T12:57:23.916Z,47.33
2023-04-26T13:00:36.572Z,46.40
2023-04-26T13:03:49.152Z,45.67
2023-04-26T13:07:01.853Z,43.48
2023-04-26T13:10:15.780Z,43.21
2023-04-26T13:13:39.939Z,45.32
2023-04-26T13:16:44.285Z,46.50
2023-04-26T13:19:57.240Z,47.59
2023-04-26T13:23:09.930Z,49.03
2023-04-26T13:26:22.140Z,52.85
2023-04-26T13:29:35.334Z,51.66
2023-04-26T13:32:47.632Z,50.73
2023-04-26T13:35:59.821Z,48.17
2023-04-26T13:39:12.390Z,47.09
2023-04-26T13:42:25.412Z,47.63
2023-04-26T13:45:37.524Z,44.46
2023-04-26T13:48:49.779Z,46.49
2023-04-26T13:52:03.998Z,49.19
2023-04-26T13:55:17.533Z,50.23
2023-04-26T13:58:29.649Z,49.50
2023-04-26T14:01:43.103Z,48.68
2023-04-26T14:04:55.861Z,48.88
2023-04-26T14:08:09.802Z,44.67
2023-04-26T14:11:23.213Z,44.18
2023-04-26T14:14:35.516Z,44.46
2023-04-26T14:17:47.570Z,47.09
2023-04-26T14:20:59.659Z,46.73
2023-04-26T14:24:13.566Z,48.97
2023-04-26T14:27:26.019Z,51.06
2023-04-26T14:30:38.226Z,50.34
2023-04-26T14:33:50.439Z,50.60
2023-04-26T14:37:04.287Z,50.17
2023-04-26T14:40:18.903Z,47.70
2023-04-26T14:43:31.153Z,46.67
2023-04-26T14:46:43.418Z,40.79
2023-04-26T14:49:55.694Z,46.42
2023-04-26T14:53:08.004Z,44.63
2023-04-26T14:56:19.956Z,42.58
2023-04-26T14:59:32.185Z,42.20
2023-04-26T15:02:44.394Z,43.19
2023-04-26T15:05:56.716Z,44.45
2023-04-26T15:09:09.616Z,46.96
2023-04-26T15:12:21.742Z,48.21
2023-04-26T15:15:34.372Z,48.94
2023-04-26T15:18:46.342Z,48.97
2023-04-26T15:21:58.307Z,48.32
2023-04-26T15:25:13.040Z,45.94
2023-04-26T15:28:25.110Z,44.69
2023-04-26T15:31:37.161Z,44.96
2023-04-26T15:34:50.056Z,45.67
2023-04-26T15:38:05.039Z,44.90
2023-04-26T15:41:17.240Z,45.13
2023-04-26T15:44:29.453Z,47.99
2023-04-26T15:47:41.961Z,46.56
2023-04-26T15:50:54.250Z,49.19
2023-04-26T15:54:06.604Z,48.92
2023-04-26T15:57:18.700Z,50.29
2023-04-26T16:00:32.605Z,51.38
2023-04-26T16:03:47.709Z,50.74
2023-04-26T16:07:00.019Z,52.58
2023-04-26T16:10:15.328Z,52.16
2023-04-26T16:13:27.483Z,52.66
2023-04-26T16:16:39.905Z,53.49
2023-04-26T16:19:52.530Z,54.35
2023-04-26T16:23:05.134Z,56.26
2023-04-26T16:26:17.337Z,55.26
2023-04-26T16:29:29.600Z,54.83
2023-04-26T16:32:41.918Z,56.06
2023-04-26T16:35:57.912Z,53.21
2023-04-26T16:39:14.962Z,54.16
2023-04-26T16:42:27.084Z,53.61
2023-04-26T16:45:39.374Z,54.27
2023-04-26T16:48:51.643Z,54.64
2023-04-26T16:52:03.897Z,55.12
2023-04-26T16:55:17.109Z,56.48
2023-04-26T16:58:29.330Z,55.12
2023-04-26T17:01:41.791Z,57.17
2023-04-26T17:04:55.338Z,57.11
2023-04-26T17:08:08.098Z,58.79
2023-04-26T17:14:35.160Z,59.97
2023-04-26T17:17:47.262Z,61.10
2023-04-26T17:20:59.713Z,61.81
2023-04-26T17:24:13.139Z,66.41
2023-04-26T17:27:26.923Z,69.98
2023-04-26T17:30:39.060Z,69.69
2023-04-26T17:33:51.064Z,69.32
2023-04-26T17:37:03.078Z,67.16
2023-04-26T17:40:18.115Z,67.32
2023-04-26T17:43:30.822Z,65.68
2023-04-26T17:46:42.965Z,63.98
2023-04-26T17:49:55.105Z,62.15
2023-04-26T17:53:07.482Z,64.41
2023-04-26T17:56:19.696Z,65.65
2023-04-26T17:59:31.894Z,63.59
2023-04-26T18:02:44.538Z,63.65
2023-04-26T18:05:56.847Z,62.85
2023-04-26T18:09:09.234Z,60.76
2023-04-26T18:12:21.334Z,62.26
2023-04-26T18:15:33.858Z,64.61
2023-04-26T18:18:46.367Z,62.34
2023-04-26T18:21:58.677Z,62.47
2023-04-26T18:25:12.293Z,63.05
2023-04-26T18:28:24.634Z,61.79
2023-04-26T18:31:39.262Z,61.66
2023-04-26T18:34:51.727Z,60.76
2023-04-26T18:38:04.106Z,60.66
2023-04-26T18:41:16.544Z,60.89
2023-04-26T18:44:29.018Z,61.65
2023-04-26T18:47:41.736Z,63.09
2023-04-26T18:50:59.381Z,62.00
2023-04-26T18:54:12.217Z,62.06
2023-04-26T18:57:24.517Z,62.33
2023-04-26T19:00:36.850Z,62.67
2023-04-26T19:03:49.274Z,63.47
2023-04-26T19:07:02.762Z,64.45
2023-04-26T19:10:17.086Z,63.90
2023-04-26T19:13:29.606Z,63.27
2023-04-26T19:16:42.020Z,65.43
2023-04-26T19:19:55.972Z,64.57
2023-04-26T19:23:08.737Z,65.50
2023-04-26T19:26:21.452Z,66.57
2023-04-26T19:29:33.654Z,67.49
2023-04-26T19:32:45.776Z,67.30
2023-04-26T19:35:58.304Z,67.07
2023-04-26T19:39:12.110Z,67.34
2023-04-26T19:42:24.278Z,68.23
2023-04-26T19:45:37.954Z,69.04
2023-04-26T19:48:50.231Z,67.80
2023-04-26T19:52:02.800Z,69.01
2023-04-26T19:55:15.915Z,68.75
2023-04-26T19:58:28.436Z,69.76
2023-04-26T20:01:41.166Z,69.28
2023-04-26T20:04:53.409Z,70.62
2023-04-26T20:08:05.771Z,71.16
2023-04-26T20:11:19.475Z,72.14
2023-04-26T20:14:32.112Z,71.25
2023-04-26T20:17:44.323Z,71.56
2023-04-26T20:20:56.729Z,72.12
2023-04-26T20:24:09.672Z,71.51
2023-04-26T20:27:22.383Z,72.91
2023-04-26T20:30:35.480Z,74.45
2023-04-26T20:33:48.206Z,73.23
2023-04-26T20:37:00.642Z,73.22
2023-04-26T20:40:16.185Z,74.37
2023-04-26T20:43:28.838Z,74.18
2023-04-26T20:46:41.662Z,74.07
2023-04-26T20:49:53.864Z,74.74
2023-04-26T20:53:06.096Z,75.83
2023-04-26T20:56:18.590Z,73.92
2023-04-26T20:59:31.871Z,74.65
2023-04-26T21:02:44.430Z,74.90
2023-04-26T21:05:56.957Z,76.10
2023-04-26T21:09:09.807Z,75.97
2023-04-26T21:12:22.382Z,76.72
2023-04-26T21:15:35.226Z,77.02
2023-04-26T21:18:48.131Z,75.50
2023-04-26T21:22:01.693Z,77.34
2023-04-26T21:25:19.198Z,77.78
2023-04-26T21:28:31.517Z,76.69
2023-04-26T21:31:43.976Z,75.79
2023-04-26T21:34:56.661Z,77.55
2023-04-26T21:38:09.118Z,77.78
2023-04-26T21:41:21.363Z,77.35
2023-04-26T21:44:33.672Z,76.98
2023-04-26T21:47:46.021Z,77.46
2023-04-26T21:50:58.307Z,77.92
2023-04-26T21:54:10.706Z,78.27
2023-04-26T21:57:24.535Z,77.30
2023-04-26T22:00:36.824Z,77.91
2023-04-26T22:03:49.764Z,76.33
2023-04-26T22:07:02.223Z,77.18
2023-04-26T22:10:17.120Z,76.74
2023-04-26T22:13:29.290Z,77.17
2023-04-26T22:16:41.369Z,78.07
2023-04-26T22:19:55.731Z,77.86
2023-04-26T22:23:07.823Z,78.37
2023-04-26T22:26:20.048Z,78.65
2023-04-26T22:29:32.141Z,78.18
2023-04-26T22:32:44.375Z,78.51
2023-04-26T22:35:58.289Z,79.16
2023-04-26T22:39:10.603Z,79.61
2023-04-26T22:42:23.131Z,79.67
2023-04-26T22:45:35.501Z,79.28
2023-04-26T22:48:47.689Z,79.78
2023-04-26T22:52:07.990Z,80.25
2023-04-26T22:55:16.854Z,79.84
2023-04-26T22:58:29.890Z,80.44
2023-04-26T23:01:42.168Z,81.09
2023-04-26T23:04:55.083Z,80.38
2023-04-26T23:08:07.383Z,80.98
2023-04-26T23:11:19.560Z,81.24
2023-04-26T23:14:32.655Z,80.63
2023-04-26T23:17:46.040Z,80.22
2023-04-26T23:20:58.219Z,81.27
2023-04-26T23:24:11.531Z,80.46
2023-04-26T23:27:25.175Z,80.58
2023-04-26T23:30:37.228Z,79.63
2023-04-26T23:33:49.278Z,80.36
2023-04-26T23:37:07.248Z,80.76
2023-04-26T23:40:18.193Z,81.96
2023-04-26T23:43:30.496Z,81.22
2023-04-26T23:46:42.885Z,81.60
2023-04-26T23:49:55.116Z,81.74
2023-04-26T23:53:07.336Z,81.51
2023-04-26T23:56:19.740Z,81.88
2023-04-26T23:59:31.902Z,83.08
